Aérodrome :
LOGIN :

S'inscrire | Disclaimer

   EN    FR    IT 

 










Légende :    VFR   VFR Marginal   IFR   IFR Intensif   IFR Très Intensif
Visi : 
Plafond : 
>= 8 km
>= 3000ft
5 à 8 km
1000 à 3000 ft
1500m à 5 km
500 à 1000 ft
800 à 1500m
200 à 500 ft
< 800m
< 200 ft
Symboles :   Orages  Brouillard  Fortes neiges  Fortes précipitations  Vent > 20 kt
SIGMETs :   Divers  Orages  Givrage  Turbulence  Onde Orograph.  Cendres Volcan.






- Altitude de l'aérodrome : 49 ft
- Code IATA : AOI


LIPY - Ancona Falconara

DERNIER METAR :
  • 021750Z AUTO 03003KT 9999 NCD 28/19 Q1016

METARs EXPIRÉS :
  • 021720Z AUTO 34005KT 9999 NCD 29/16 Q1017
  • 021650Z AUTO 34005KT 310V010 9999 NCD 29/18 Q1017
  • 021620Z AUTO 34006KT 320V020 9999 NCD 29/19 Q1017
  • 021550Z AUTO 35006KT 320V030 9999 NCD 29/19 Q1017
  • 021520Z AUTO 36007KT 9999 NCD 29/20 Q1017

TAF TAF LIPY
Valide du 02 à 18h jusqu'au 03 à 18h UTC


021700Z 0218/0318 34010KT CAVOK
BECMG 0218/0220 24006KT
BECMG 0308/0310 03012KT



MET'MAP, la Météo Aéronautique d'un coup d'oeil ! - Copyright ORBIFLY Décembre 2007 - Disclaimer

ORBIFLY MET'MAP TEAM :

Programmation & Développement : Alexandra Zaïnal
Sur une idée originale de : Baudouin d'Aumeries
Soutien technique & logistique : Manuel Goepfert
Assistance : Marc-Olivier Méhu




SOURCES & CREDITS :

   NOAA